createdAt,value
2018-07-17T00:02:24.254Z,19.22
2018-07-17T00:04:52.566Z,19.15
2018-07-17T00:07:20.871Z,18.92
2018-07-17T00:09:49.173Z,18.72
2018-07-17T00:12:17.548Z,18.68
2018-07-17T00:14:45.867Z,18.58
2018-07-17T00:17:14.191Z,18.47
2018-07-17T00:19:42.498Z,18.43
2018-07-17T00:22:10.819Z,18.42
2018-07-17T00:24:39.061Z,18.43
2018-07-17T00:27:07.321Z,18.39
2018-07-17T00:29:35.606Z,18.49
2018-07-17T00:32:03.877Z,18.36
2018-07-17T00:34:32.203Z,18.23
2018-07-17T00:37:00.510Z,18.25
2018-07-17T00:39:28.770Z,18.16
2018-07-17T00:41:57.072Z,18.18
2018-07-17T00:44:25.346Z,18.24
2018-07-17T00:46:53.641Z,18.24
2018-07-17T00:49:21.961Z,18.07
2018-07-17T00:51:50.234Z,18.10
2018-07-17T00:54:18.513Z,18.07
2018-07-17T00:56:46.778Z,17.99
2018-07-17T00:59:15.070Z,17.91
2018-07-17T01:01:48.679Z,17.83
2018-07-17T01:04:22.149Z,17.76
2018-07-17T01:06:55.849Z,17.79
2018-07-17T01:09:29.365Z,17.75
2018-07-17T01:12:03.194Z,17.65
2018-07-17T01:14:41.834Z,17.62
2018-07-17T01:17:10.278Z,17.75
2018-07-17T01:19:38.933Z,17.81
2018-07-17T01:22:07.467Z,17.81
2018-07-17T01:24:35.737Z,17.73
2018-07-17T01:27:04.097Z,17.71
2018-07-17T01:29:32.395Z,17.73
2018-07-17T01:32:00.643Z,17.67
2018-07-17T01:34:28.893Z,17.57
2018-07-17T01:36:57.193Z,17.49
2018-07-17T01:39:25.459Z,17.41
2018-07-17T01:41:53.708Z,17.38
2018-07-17T01:44:21.969Z,17.27
2018-07-17T01:46:50.259Z,17.20
2018-07-17T01:49:18.538Z,17.14
2018-07-17T01:51:46.796Z,17.16
2018-07-17T01:54:15.095Z,17.22
2018-07-17T01:56:43.364Z,17.16
2018-07-17T01:59:11.915Z,17.12
2018-07-17T02:01:40.186Z,17.03
2018-07-17T02:04:08.451Z,16.93
2018-07-17T02:06:36.741Z,16.89
2018-07-17T02:09:06.262Z,16.94
2018-07-17T02:11:34.583Z,16.88
2018-07-17T02:14:02.887Z,16.84
2018-07-17T02:16:31.400Z,16.82
2018-07-17T02:18:59.806Z,16.80
2018-07-17T02:21:28.347Z,16.69
2018-07-17T02:23:56.595Z,16.78
2018-07-17T02:26:24.840Z,16.80
2018-07-17T02:28:53.122Z,16.76
2018-07-17T02:31:21.398Z,16.71
2018-07-17T02:33:49.646Z,16.66
2018-07-17T02:36:17.943Z,16.58
2018-07-17T02:38:46.183Z,16.63
2018-07-17T02:41:14.466Z,16.54
2018-07-17T02:43:42.734Z,16.59
2018-07-17T02:46:11.189Z,16.53
2018-07-17T02:48:39.474Z,16.49
2018-07-17T02:51:08.595Z,16.49
2018-07-17T02:53:36.913Z,16.50
2018-07-17T02:56:05.247Z,16.50
2018-07-17T02:58:33.841Z,16.51
2018-07-17T03:01:02.107Z,16.56
2018-07-17T03:03:30.373Z,16.50
2018-07-17T03:05:58.677Z,16.48
2018-07-17T03:08:26.929Z,16.44
2018-07-17T03:10:55.170Z,16.36
2018-07-17T03:13:23.420Z,16.37
2018-07-17T03:15:51.743Z,16.39
2018-07-17T03:18:20.006Z,16.39
2018-07-17T03:20:48.287Z,16.35
2018-07-17T03:23:16.584Z,16.29
2018-07-17T03:25:44.882Z,16.19
2018-07-17T03:28:13.136Z,16.18
2018-07-17T03:30:41.403Z,16.13
2018-07-17T03:33:09.702Z,16.06
2018-07-17T03:35:37.956Z,16.07
2018-07-17T03:38:06.223Z,16.01
2018-07-17T03:40:34.476Z,16.03
2018-07-17T03:43:02.746Z,15.97
2018-07-17T03:45:31.010Z,16.01
2018-07-17T03:47:59.321Z,15.97
2018-07-17T03:50:27.652Z,16.04
2018-07-17T03:52:55.947Z,16.15
2018-07-17T03:55:24.257Z,16.29
2018-07-17T03:57:52.577Z,16.23
2018-07-17T04:00:20.872Z,16.32
2018-07-17T04:02:49.209Z,16.31
2018-07-17T04:05:17.443Z,16.40
2018-07-17T04:07:45.790Z,16.41
2018-07-17T04:10:16.084Z,16.43
2018-07-17T04:12:44.336Z,16.47
2018-07-17T04:15:12.688Z,16.54
2018-07-17T04:17:40.945Z,16.53
2018-07-17T04:20:09.234Z,16.59
2018-07-17T04:22:37.611Z,16.64
2018-07-17T04:25:05.871Z,16.66
2018-07-17T04:27:34.162Z,16.51
2018-07-17T04:30:02.765Z,16.50
2018-07-17T04:32:31.067Z,16.55
2018-07-17T04:34:59.369Z,16.61
2018-07-17T04:37:27.684Z,16.59
2018-07-17T04:39:55.985Z,16.64
2018-07-17T04:42:24.531Z,16.75
2018-07-17T04:44:52.782Z,16.93
2018-07-17T04:47:21.159Z,17.05
2018-07-17T04:49:49.506Z,17.10
2018-07-17T04:52:17.788Z,17.19
2018-07-17T04:54:46.085Z,17.43
2018-07-17T04:57:14.334Z,17.57
2018-07-17T04:59:42.605Z,17.64
2018-07-17T05:02:11.110Z,17.80
2018-07-17T05:04:39.388Z,17.84
2018-07-17T05:07:08.030Z,17.89
2018-07-17T05:09:36.451Z,18.08
2018-07-17T05:12:04.766Z,18.13
2018-07-17T05:14:33.128Z,18.36
2018-07-17T05:17:01.538Z,18.61
2018-07-17T05:19:29.825Z,18.72
2018-07-17T05:21:58.162Z,18.85
2018-07-17T05:24:26.427Z,18.80
2018-07-17T05:26:54.929Z,19.07
2018-07-17T05:29:23.202Z,19.01
2018-07-17T05:31:51.601Z,19.21
2018-07-17T05:34:19.893Z,19.39
2018-07-17T05:36:48.190Z,19.45
2018-07-17T05:39:16.516Z,19.55
2018-07-17T05:41:44.755Z,19.78
2018-07-17T05:44:13.083Z,19.88
2018-07-17T05:46:41.390Z,19.73
2018-07-17T05:49:09.678Z,19.89
2018-07-17T05:51:38.202Z,20.10
2018-07-17T05:54:06.517Z,20.31
2018-07-17T05:56:34.824Z,20.50
2018-07-17T05:59:03.414Z,20.60
2018-07-17T06:01:31.699Z,20.73
2018-07-17T06:03:59.994Z,20.87
2018-07-17T06:06:28.302Z,21.11
2018-07-17T06:08:56.693Z,21.15
2018-07-17T06:11:24.955Z,21.34
2018-07-17T06:13:53.204Z,21.48
2018-07-17T06:16:21.470Z,21.60
2018-07-17T06:18:50.054Z,21.56
2018-07-17T06:21:18.412Z,21.78
2018-07-17T06:23:46.719Z,21.88
2018-07-17T06:26:14.996Z,21.94
2018-07-17T06:28:43.573Z,21.84
2018-07-17T06:31:11.829Z,21.77
2018-07-17T06:33:40.096Z,21.92
2018-07-17T06:36:08.404Z,22.09
2018-07-17T06:38:36.740Z,21.92
2018-07-17T06:41:05.045Z,22.05
2018-07-17T06:43:33.334Z,22.27
2018-07-17T06:46:01.707Z,22.37
2018-07-17T06:48:29.966Z,22.48
2018-07-17T06:50:58.265Z,22.54
2018-07-17T06:53:26.526Z,23.08
2018-07-17T06:55:54.805Z,23.24
2018-07-17T06:58:23.108Z,23.50
2018-07-17T07:00:51.496Z,23.25
2018-07-17T07:03:19.801Z,23.53
2018-07-17T07:05:48.089Z,23.78
2018-07-17T07:08:16.740Z,23.84
2018-07-17T07:10:45.040Z,23.95
2018-07-17T07:13:13.347Z,24.29
2018-07-17T07:15:41.581Z,24.47
2018-07-17T07:18:09.849Z,24.54
2018-07-17T07:20:38.316Z,24.66
2018-07-17T07:23:07.067Z,24.85
2018-07-17T07:25:35.336Z,24.77
2018-07-17T07:28:03.693Z,24.79
2018-07-17T07:30:31.992Z,24.77
2018-07-17T07:33:00.280Z,24.66
2018-07-17T07:35:28.598Z,24.74
2018-07-17T07:37:56.887Z,25.04
2018-07-17T07:40:25.181Z,25.14
2018-07-17T07:42:53.517Z,25.16
2018-07-17T07:45:21.720Z,25.38
2018-07-17T07:47:50.007Z,25.59
2018-07-17T07:50:19.287Z,25.57
2018-07-17T07:52:47.615Z,25.85
2018-07-17T07:55:15.901Z,25.88
2018-07-17T07:57:44.203Z,25.87
2018-07-17T08:00:12.683Z,25.85
2018-07-17T08:02:40.974Z,25.92
2018-07-17T08:05:09.378Z,25.91
2018-07-17T08:07:37.692Z,26.03
2018-07-17T08:10:06.811Z,25.97
2018-07-17T08:12:35.119Z,26.10
2018-07-17T08:15:03.409Z,26.27
2018-07-17T08:17:31.796Z,26.44
2018-07-17T08:20:00.128Z,26.25
2018-07-17T08:22:28.397Z,26.58
2018-07-17T08:24:56.700Z,27.04
2018-07-17T08:27:25.000Z,27.06
2018-07-17T08:29:53.254Z,26.87
2018-07-17T08:32:21.529Z,27.35
2018-07-17T08:34:49.785Z,27.87
2018-07-17T08:37:18.081Z,28.07
2018-07-17T08:39:48.502Z,27.88
2018-07-17T08:42:16.824Z,27.51
2018-07-17T08:44:45.099Z,28.00
2018-07-17T08:47:13.414Z,27.82
2018-07-17T08:49:41.815Z,27.96
2018-07-17T08:52:10.085Z,27.88
2018-07-17T08:54:38.558Z,27.88
2018-07-17T08:57:06.716Z,28.33
2018-07-17T08:59:35.111Z,28.07
2018-07-17T09:02:03.401Z,28.12
2018-07-17T09:04:31.637Z,28.44
2018-07-17T09:06:59.951Z,28.48
2018-07-17T09:09:28.254Z,28.32
2018-07-17T09:11:56.516Z,28.98
2018-07-17T09:14:24.799Z,28.69
2018-07-17T09:16:53.092Z,29.28
2018-07-17T09:19:21.399Z,29.00
2018-07-17T09:21:49.710Z,29.46
2018-07-17T09:24:18.067Z,29.94
2018-07-17T09:26:46.388Z,28.67
2018-07-17T09:29:14.666Z,28.93
2018-07-17T09:31:42.902Z,29.01
2018-07-17T09:34:11.209Z,29.24
2018-07-17T09:36:39.724Z,28.28
2018-07-17T09:39:09.027Z,27.87
2018-07-17T09:41:37.277Z,28.13
2018-07-17T09:44:05.602Z,28.93
2018-07-17T09:46:33.822Z,29.02
2018-07-17T09:49:02.082Z,28.60
2018-07-17T09:51:30.396Z,29.29
2018-07-17T09:53:58.703Z,29.45
2018-07-17T09:56:26.951Z,28.63
2018-07-17T09:58:55.474Z,28.28
2018-07-17T10:01:29.066Z,29.25
2018-07-17T10:03:57.550Z,29.82
2018-07-17T10:06:25.875Z,30.20
2018-07-17T10:08:54.101Z,30.35
2018-07-17T10:11:22.429Z,30.66
2018-07-17T10:13:50.709Z,30.65
2018-07-17T10:16:18.960Z,30.76
2018-07-17T10:18:47.238Z,31.29
2018-07-17T10:21:15.505Z,31.27
2018-07-17T10:23:43.831Z,29.74
2018-07-17T10:26:12.056Z,30.43
2018-07-17T10:28:40.329Z,30.06
2018-07-17T10:31:08.632Z,30.14
2018-07-17T10:33:36.920Z,30.38
2018-07-17T10:36:05.253Z,30.97
2018-07-17T10:38:33.517Z,29.69
2018-07-17T10:41:01.795Z,30.14
2018-07-17T10:43:30.041Z,29.52
2018-07-17T10:45:58.359Z,29.82
2018-07-17T10:48:26.608Z,29.94
2018-07-17T10:50:54.895Z,30.64
2018-07-17T10:53:23.271Z,30.86
2018-07-17T10:55:51.581Z,31.06
2018-07-17T10:58:19.862Z,31.62
2018-07-17T11:00:48.139Z,31.47
2018-07-17T11:03:16.447Z,30.82
2018-07-17T11:05:44.725Z,30.40
2018-07-17T11:08:13.084Z,30.93
2018-07-17T11:10:41.408Z,30.23
2018-07-17T11:13:09.665Z,30.93
2018-07-17T11:15:37.994Z,30.46
2018-07-17T11:18:06.322Z,30.17
2018-07-17T11:20:36.484Z,30.35
2018-07-17T11:23:04.764Z,29.96
2018-07-17T11:25:33.071Z,30.53
2018-07-17T11:28:01.444Z,30.69
2018-07-17T11:30:29.769Z,29.82
2018-07-17T11:32:58.077Z,29.51
2018-07-17T11:35:26.347Z,29.45
2018-07-17T11:37:54.674Z,29.15
2018-07-17T11:40:22.911Z,29.32
2018-07-17T11:42:51.289Z,29.91
2018-07-17T11:45:19.596Z,30.18
2018-07-17T11:47:47.922Z,30.48
2018-07-17T11:50:16.150Z,30.57
2018-07-17T11:52:44.539Z,30.40
2018-07-17T11:55:12.819Z,30.69
2018-07-17T11:57:41.140Z,30.18
2018-07-17T12:00:09.460Z,30.63
2018-07-17T12:02:37.738Z,30.48
2018-07-17T12:05:06.201Z,30.57
2018-07-17T12:07:34.588Z,30.77
2018-07-17T12:10:03.096Z,31.00
2018-07-17T12:12:31.462Z,31.22
2018-07-17T12:14:59.760Z,31.39
2018-07-17T12:17:28.055Z,31.32
2018-07-17T12:19:56.488Z,31.48
2018-07-17T12:22:24.666Z,31.69
2018-07-17T12:24:53.173Z,31.77
2018-07-17T12:27:21.523Z,32.11
2018-07-17T12:29:49.775Z,31.43
2018-07-17T12:32:18.139Z,31.87
2018-07-17T12:34:46.480Z,31.36
2018-07-17T12:37:14.847Z,31.70
2018-07-17T12:39:43.399Z,32.45
2018-07-17T12:42:11.700Z,32.75
2018-07-17T12:44:40.159Z,33.72
2018-07-17T12:47:08.428Z,34.18
2018-07-17T12:49:36.730Z,32.08
2018-07-17T12:52:04.981Z,32.70
2018-07-17T12:54:33.301Z,33.42
2018-07-17T12:57:01.606Z,33.55
2018-07-17T12:59:29.880Z,34.35
2018-07-17T13:01:58.251Z,32.66
2018-07-17T13:04:26.516Z,33.11
2018-07-17T13:06:54.801Z,34.25
2018-07-17T13:09:23.128Z,35.65
2018-07-17T13:11:51.452Z,35.47
2018-07-17T13:14:19.747Z,36.38
2018-07-17T13:16:48.114Z,34.97
2018-07-17T13:19:16.392Z,35.52
2018-07-17T13:21:44.713Z,35.15
2018-07-17T13:24:12.998Z,33.53
2018-07-17T13:26:41.306Z,34.57
2018-07-17T13:29:09.712Z,32.77
2018-07-17T13:31:38.037Z,31.91
2018-07-17T13:34:06.358Z,32.28
2018-07-17T13:36:34.894Z,32.42
2018-07-17T13:39:03.266Z,32.52
2018-07-17T13:41:31.595Z,32.88
2018-07-17T13:44:00.069Z,34.64
2018-07-17T13:46:28.620Z,34.11
2018-07-17T13:48:57.046Z,34.39
2018-07-17T13:51:25.416Z,34.09
2018-07-17T13:53:53.674Z,35.04
2018-07-17T13:56:22.034Z,33.51
2018-07-17T13:58:50.323Z,31.32
2018-07-17T14:01:18.926Z,30.28
2018-07-17T14:03:47.215Z,31.09
2018-07-17T14:06:15.536Z,30.43
2018-07-17T14:08:43.888Z,29.63
2018-07-17T14:11:12.147Z,31.12
2018-07-17T14:13:40.591Z,32.78
2018-07-17T14:16:08.853Z,32.64
2018-07-17T14:18:37.565Z,31.60
2018-07-17T14:21:05.889Z,30.86
2018-07-17T14:23:34.277Z,29.74
2018-07-17T14:26:02.895Z,29.67
2018-07-17T14:28:31.173Z,29.24
2018-07-17T14:30:59.443Z,29.21
2018-07-17T14:33:27.735Z,29.22
2018-07-17T14:35:56.028Z,30.05
2018-07-17T14:38:24.316Z,30.96
2018-07-17T14:40:52.626Z,32.35
2018-07-17T14:43:20.932Z,31.94
2018-07-17T14:45:49.187Z,31.23
2018-07-17T14:48:17.601Z,32.49
2018-07-17T14:50:45.888Z,32.04
2018-07-17T14:53:14.217Z,32.18
2018-07-17T14:55:42.510Z,31.39
2018-07-17T14:58:10.872Z,31.44
2018-07-17T15:00:39.165Z,31.27
2018-07-17T15:03:07.455Z,31.08
2018-07-17T15:05:35.772Z,33.29
2018-07-17T15:08:05.093Z,32.84
2018-07-17T15:10:33.398Z,33.06
2018-07-17T15:13:01.806Z,31.26
2018-07-17T15:15:30.174Z,30.49
2018-07-17T15:17:58.758Z,31.16
2018-07-17T15:20:27.193Z,31.81
2018-07-17T15:22:55.466Z,31.70
2018-07-17T15:25:23.863Z,31.86
2018-07-17T15:27:52.296Z,31.57
2018-07-17T15:30:20.558Z,32.49
2018-07-17T15:32:48.811Z,32.31
2018-07-17T15:35:17.241Z,33.00
2018-07-17T15:37:45.437Z,31.48
2018-07-17T15:40:13.738Z,32.04
2018-07-17T15:42:42.050Z,32.50
2018-07-17T15:45:10.574Z,33.17
2018-07-17T15:47:39.522Z,33.96
2018-07-17T15:50:07.788Z,33.71
2018-07-17T15:52:36.129Z,33.24
2018-07-17T15:55:04.404Z,32.82
2018-07-17T15:57:32.757Z,33.02
2018-07-17T16:00:01.104Z,31.95
2018-07-17T16:02:29.375Z,32.21
2018-07-17T16:04:57.815Z,32.11
2018-07-17T16:07:26.141Z,33.13
2018-07-17T16:09:54.520Z,33.40
2018-07-17T16:12:22.810Z,32.57
2018-07-17T16:14:51.187Z,32.25
2018-07-17T16:17:19.513Z,31.74
2018-07-17T16:19:47.768Z,31.46
2018-07-17T16:22:16.080Z,31.56
2018-07-17T16:24:44.366Z,32.31
2018-07-17T16:27:12.673Z,31.75
2018-07-17T16:29:40.957Z,31.52
2018-07-17T16:32:09.333Z,31.50
2018-07-17T16:34:37.618Z,32.12
2018-07-17T16:37:06.041Z,31.06
2018-07-17T16:39:34.905Z,30.97
2018-07-17T16:42:03.394Z,30.65
2018-07-17T16:44:31.650Z,31.26
2018-07-17T16:46:59.937Z,31.00
2018-07-17T16:49:28.467Z,30.70
2018-07-17T16:51:56.768Z,30.90
2018-07-17T16:54:25.046Z,30.95
2018-07-17T16:56:53.319Z,29.82
2018-07-17T16:59:22.033Z,30.02
2018-07-17T17:01:50.273Z,29.59
2018-07-17T17:04:18.527Z,30.15
2018-07-17T17:06:46.833Z,29.87
2018-07-17T17:09:15.161Z,29.80
2018-07-17T17:11:43.486Z,29.64
2018-07-17T17:14:11.757Z,29.92
2018-07-17T17:16:40.354Z,30.22
2018-07-17T17:19:08.735Z,29.00
2018-07-17T17:21:37.515Z,28.96
2018-07-17T17:24:06.428Z,28.90
2018-07-17T17:26:35.512Z,29.22
2018-07-17T17:29:03.757Z,28.63
2018-07-17T17:31:32.161Z,28.68
2018-07-17T17:34:00.449Z,27.87
2018-07-17T17:36:28.758Z,28.10
2018-07-17T17:38:57.115Z,28.47
2018-07-17T17:41:25.393Z,28.21
2018-07-17T17:43:53.711Z,28.21
2018-07-17T17:46:22.032Z,27.79
2018-07-17T17:48:50.364Z,28.25
2018-07-17T17:51:18.700Z,27.72
2018-07-17T17:53:47.042Z,28.03
2018-07-17T17:56:15.328Z,27.78
2018-07-17T17:58:43.647Z,27.99
2018-07-17T18:01:11.889Z,28.03
2018-07-17T18:03:40.203Z,27.65
2018-07-17T18:06:08.509Z,27.43
2018-07-17T18:08:36.771Z,27.00
2018-07-17T18:11:05.136Z,26.77
2018-07-17T18:13:33.392Z,27.06
2018-07-17T18:16:01.713Z,26.62
2018-07-17T18:18:30.058Z,25.63
2018-07-17T18:20:58.316Z,24.70
2018-07-17T18:23:26.620Z,25.22
2018-07-17T18:25:54.901Z,25.42
2018-07-17T18:28:23.334Z,25.29
2018-07-17T18:30:51.677Z,24.87
2018-07-17T18:33:19.995Z,24.72
2018-07-17T18:35:48.393Z,24.84
2018-07-17T18:38:16.673Z,24.90
2018-07-17T18:40:45.170Z,25.24
2018-07-17T18:43:13.433Z,25.02
2018-07-17T18:45:41.703Z,25.01
2018-07-17T18:48:10.310Z,24.93
2018-07-17T18:50:39.048Z,24.68
2018-07-17T18:53:07.448Z,24.52
2018-07-17T18:55:35.726Z,24.68
2018-07-17T18:58:04.057Z,24.09
2018-07-17T19:00:32.359Z,24.01
2018-07-17T19:03:00.697Z,23.44
2018-07-17T19:05:28.997Z,23.28
2018-07-17T19:07:57.311Z,23.07
2018-07-17T19:10:25.599Z,22.87
2018-07-17T19:12:53.919Z,22.66
2018-07-17T19:15:22.251Z,22.60
2018-07-17T19:17:50.564Z,22.45
2018-07-17T19:20:18.866Z,22.39
2018-07-17T19:22:47.148Z,22.37
2018-07-17T19:25:15.393Z,22.25
2018-07-17T19:27:43.893Z,21.92
2018-07-17T19:30:12.165Z,21.79
2018-07-17T19:32:40.455Z,21.75
2018-07-17T19:35:08.831Z,21.48
2018-07-17T19:37:37.104Z,21.38
2018-07-17T19:40:06.220Z,21.32
2018-07-17T19:42:34.580Z,21.11
2018-07-17T19:45:02.837Z,20.95
2018-07-17T19:47:31.227Z,20.79
2018-07-17T19:49:59.481Z,20.76
2018-07-17T19:52:27.797Z,20.62
2018-07-17T19:54:56.122Z,20.50
2018-07-17T19:57:24.472Z,20.38
2018-07-17T19:59:52.911Z,20.28
2018-07-17T20:02:21.200Z,20.17
2018-07-17T20:04:49.538Z,20.19
2018-07-17T20:07:17.848Z,20.10
2018-07-17T20:09:46.157Z,19.98
2018-07-17T20:12:14.485Z,19.94
2018-07-17T20:14:42.774Z,19.85
2018-07-17T20:17:11.165Z,19.84
2018-07-17T20:19:39.451Z,19.80
2018-07-17T20:22:07.879Z,19.79
2018-07-17T20:24:36.278Z,19.74
2018-07-17T20:27:04.612Z,19.66
2018-07-17T20:29:33.021Z,19.55
2018-07-17T20:32:01.719Z,19.51
2018-07-17T20:34:30.143Z,19.45
2018-07-17T20:36:58.453Z,19.47
2018-07-17T20:39:26.788Z,19.36
2018-07-17T20:41:55.113Z,19.33
2018-07-17T20:44:23.419Z,19.33
2018-07-17T20:46:51.730Z,19.27
2018-07-17T20:49:20.039Z,19.21
2018-07-17T20:51:51.696Z,19.11
2018-07-17T20:54:20.467Z,19.07
2018-07-17T20:56:48.805Z,19.07
2018-07-17T20:59:17.104Z,18.99
2018-07-17T21:01:45.380Z,18.99
2018-07-17T21:04:13.629Z,18.91
2018-07-17T21:06:41.928Z,18.88
2018-07-17T21:09:11.163Z,18.85
2018-07-17T21:11:39.445Z,18.78
2018-07-17T21:14:07.923Z,18.77
2018-07-17T21:16:36.158Z,18.69
2018-07-17T21:19:04.453Z,18.67
2018-07-17T21:21:32.712Z,18.65
2018-07-17T21:24:00.941Z,18.59
2018-07-17T21:26:29.263Z,18.50
2018-07-17T21:28:57.538Z,18.49
2018-07-17T21:31:26.208Z,18.45
2018-07-17T21:33:54.481Z,18.35
2018-07-17T21:36:22.757Z,18.37
2018-07-17T21:38:51.046Z,18.25
2018-07-17T21:41:19.366Z,18.34
2018-07-17T21:43:47.723Z,18.22
2018-07-17T21:46:16.043Z,18.15
2018-07-17T21:48:44.345Z,18.18
2018-07-17T21:51:12.607Z,18.12
2018-07-17T21:53:40.905Z,18.11
2018-07-17T21:56:09.244Z,18.00
2018-07-17T21:58:37.530Z,18.03
2018-07-17T22:01:05.838Z,18.01
2018-07-17T22:03:34.124Z,17.93
2018-07-17T22:06:02.615Z,17.86
2018-07-17T22:08:30.873Z,17.83
2018-07-17T22:10:59.115Z,17.81
2018-07-17T22:13:27.427Z,17.73
2018-07-17T22:15:55.798Z,17.71
2018-07-17T22:18:24.060Z,17.58
2018-07-17T22:20:52.372Z,17.56
2018-07-17T22:23:20.619Z,17.63
2018-07-17T22:25:48.856Z,17.67
2018-07-17T22:28:17.110Z,17.53
2018-07-17T22:30:45.369Z,17.50
2018-07-17T22:33:13.678Z,17.38
2018-07-17T22:35:41.964Z,17.42
2018-07-17T22:38:10.217Z,17.40
2018-07-17T22:40:38.501Z,17.25
2018-07-17T22:43:06.802Z,17.25
2018-07-17T22:45:35.237Z,17.33
2018-07-17T22:48:03.567Z,17.34
2018-07-17T22:50:31.917Z,17.10
2018-07-17T22:53:00.257Z,17.13
2018-07-17T22:55:28.519Z,16.97
2018-07-17T22:57:56.883Z,17.03
2018-07-17T23:00:25.320Z,16.97
2018-07-17T23:02:53.757Z,16.74
2018-07-17T23:05:22.080Z,16.86
2018-07-17T23:07:50.394Z,16.80
2018-07-17T23:10:18.684Z,16.77
2018-07-17T23:12:46.949Z,16.71
2018-07-17T23:15:15.187Z,16.87
2018-07-17T23:17:43.478Z,16.85
2018-07-17T23:20:11.725Z,16.81
2018-07-17T23:22:58.497Z,16.91
2018-07-17T23:25:28.026Z,16.79
2018-07-17T23:27:57.358Z,16.78
2018-07-17T23:30:25.659Z,16.73
2018-07-17T23:32:54.095Z,16.74
2018-07-17T23:35:23.438Z,16.58
2018-07-17T23:37:52.183Z,16.44
2018-07-17T23:40:20.892Z,16.57
2018-07-17T23:42:49.193Z,16.34
2018-07-17T23:45:18.218Z,16.32
2018-07-17T23:47:47.460Z,16.38
2018-07-17T23:50:15.712Z,16.41
2018-07-17T23:52:43.993Z,16.40
2018-07-17T23:55:12.379Z,16.35
2018-07-17T23:57:40.744Z,16.33
